x

Lake Winnipeg North (45144) Wave Buoy

11:00pm - Wed 29th Jul 2015 All times are UTC.

  • Sig Wave height 6.6ft
  • Peak Period 5s
  • Wind
    18mph, 25mph gusts
  • Sea Temp 77°f
  • Air Temp 64°f
  • Sea Pressure 1006.6mb

More Historic Weather Station data

Upgrade to MSW Pro to gain access to the past 30 days of data for over 8000 Wavebouys and Weather Stations around the globe.

Join Pro

Comparision Forecast

View Surf forecast
   
Wed 07/29 11:00pm 6.5ft 5s 18 25 mph 1006.6mb 77f 64f
6:00pm 9.5ft  -  31 38 mph 999.2mb - 63f
10:00am 6ft  -  25 29 mph 991.1mb 73f 62f
8:00am 4ft  -  22 29 mph 991.2mb 66f 64f
7:00am 2.5ft  -  9 11 mph 991.2mb 66f 66f
6:00am 3ft  -  9 11 mph 991.2mb 66f 67f
5:00am 3ft  -  11 13 mph 991.5mb 66f 68f
4:00am 3ft  -  9 11 mph 991.8mb 66f 68f
3:00am 3.5ft  -  9 11 mph 991.8mb 66f 69f
2:00am 4.5ft  -  13
mph
991.5mb 66f 70f
1:00am 4ft  -  7 9 mph 991.7mb 66f 69f
12:00am 4ft  -  9 13 mph 991.9mb 67f 68f
Tue 07/28 11:00pm 4.5ft  -  16 20 mph 992mb 67f 70f
10:00pm 5ft  -  13 16 mph 993.4mb 66f 68f
6:00pm 6.5ft  -  22 29 mph 997.1mb 66f 65f
2:00pm 3.5ft  -  18 27 mph 1002.6mb 66f 63f
1:00pm 4ft  -  13 18 mph 1004.1mb 66f 66f
10:00am 5ft  -  13 18 mph 1006.8mb 67f 67f
9:00am 3ft  -  18 22 mph 1007.2mb 67f 67f
8:00am 1.6ft  -  11 16 mph 1008.7mb 67f 67f
7:00am 1.6ft  -  11 13 mph 1009.2mb 67f 68f
6:00am 1ft  -  11
mph
1009.8mb 68f 68f
3:00am 0.3ft  -  9 11 mph 1011.1mb 69f 69f
2:00am 0.3ft  -  7
mph
1011.8mb 69f 69f
1:00am 0.3ft  -  9 11 mph 1012.1mb 69f 69f
12:00am 0.3ft  -  7 9 mph 1012.3mb 69f 71f
Mon 07/27 10:00pm 0.3ft  -  7 9 mph 1012.4mb 70f 70f
9:00pm 0.3ft 2s 4 7 mph 1012.5mb 70f 71f
8:00pm 0.3ft  -  4 7 mph 1012.4mb 70f 71f
7:00pm 1ft  -  2 4 mph 1011.9mb 69f 70f
6:00pm 1.3ft  -  7 9 mph 1012.4mb 68f 69f
5:00pm 1.3ft  -  7 9 mph 1012.4mb 67f 68f
4:00pm 1.6ft  -  7 9 mph 1012mb 67f 68f
2:00pm 2.5ft  -  11 13 mph 1011.7mb 67f 67f
1:00pm 2.5ft  -  9 11 mph 1010.7mb 67f 67f
10:00am 3.5ft  -  16 18 mph 1008.4mb 67f 68f
9:00am 3.5ft  -  16 18 mph 1007.8mb 67f 69f
8:00am 2.5ft  -  11 16 mph 1007.7mb 67f 70f
7:00am 3ft  -  11 13 mph 1007.8mb 67f 71f
6:00am 3ft  -  11 13 mph 1007.5mb 67f 71f
5:00am 3ft  -  11 13 mph 1006.8mb 67f 71f
4:00am 3ft  -  13 16 mph 1006.1mb 67f 72f
3:00am 3ft  -  11 13 mph 1005.2mb 67f 71f
2:00am 2.5ft  -  16 18 mph 1004.1mb 68f 72f
1:00am 2ft  -  13 16 mph 1004.7mb 68f 71f
12:00am 2.5ft  -  7 9 mph 1005.4mb 68f 71f
Sun 07/26 11:00pm 3ft  -  9 11 mph 1005.5mb 68f 70f
10:00pm 3.5ft  -  7 9 mph 1006.5mb 68f 71f
9:00pm 3.5ft  -  9 13 mph 1007.4mb 67f 73f
8:00pm 3.5ft  -  11 13 mph 1006.6mb 67f 69f
7:00pm 4.5ft  -  13 16 mph 1006.6mb 67f 69f
6:00pm 3.5ft  -  13 18 mph 1006.5mb 67f 70f
5:00pm 4.5ft  -  16 18 mph 1006.9mb 67f 69f
4:00pm 3.5ft  -  13 18 mph 1007.2mb 67f 69f
3:00pm 3.5ft  -  16 18 mph 1007.2mb 67f 69f
2:00pm 4.5ft  -  18 22 mph 1007.2mb 67f 69f
1:00pm 4.5ft  -  20 22 mph 1007.3mb 67f 68f
12:00pm 2.5ft  -  18 22 mph 1008.1mb 68f 68f
10:00am 3.5ft  -  13
mph
1007.5mb 68f 70f
9:00am 2.5ft  -  11 13 mph 1007.9mb 68f 70f
8:00am 1ft  -  13 16 mph 1008.2mb 68f 71f
7:00am 0.7ft  -  9 11 mph 1009mb 68f 70f
6:00am 0.3ft  -  9 11 mph 1009mb 68f 71f
5:00am 0.7ft  -  7
mph
1009.3mb 69f 69f
4:00am 0.3ft  -  9
mph
1009.2mb 69f 70f
3:00am 0.3ft  -  9
mph
1009mb 69f 70f